Locke Mills, Pennsylvania
Current Conditions -  °F | °C
As of 4:35 AM on Friday 24 Oct 2014 (Local Time) from KUNV Reporting Station
Broken Clouds Broken Clouds  
Wind Chill:   Ceiling: 3900
Heat Index:   Visibility: 10mi
Dew Point:   Wind: 5mph
Humidity: 76%   Direction: 280°W
Pressure: 29.98"   Gusts: NA
Location:  40.7567°N, 77.488°W
Report Text: KUNV 240835Z AUTO 28004KT 10SM BKN039 09/05 A2998 RMK AO2 T00910050
Loading
Personal Weather Stations






























Interactive Weather Map
Tropical Storm Tracking
New forecast layout! Learn more

10-Day Weather Forecast

Advertisements
Track Severe Weather on mobile